sensor_id;sensor_type;location;lat;lon;timestamp;P1;durP1;ratioP1;P2;durP2;ratioP2
7432;SDS011;32233;49.500;7.764;2022-12-20T00:01:25;19.37;;;12.20;;
7432;SDS011;32233;49.500;7.764;2022-12-20T00:03:54;19.93;;;12.33;;
7432;SDS011;32233;49.500;7.764;2022-12-20T00:06:22;19.20;;;12.60;;
7432;SDS011;32233;49.500;7.764;2022-12-20T00:08:56;15.93;;;10.77;;
7432;SDS011;32233;49.500;7.764;2022-12-20T00:11:25;15.63;;;9.97;;
7432;SDS011;32233;49.500;7.764;2022-12-20T00:13:52;14.33;;;9.87;;
7432;SDS011;32233;49.500;7.764;2022-12-20T00:16:22;12.40;;;9.60;;
7432;SDS011;32233;49.500;7.764;2022-12-20T00:18:51;12.43;;;9.57;;
7432;SDS011;32233;49.500;7.764;2022-12-20T00:21:19;9.77;;;7.60;;
7432;SDS011;32233;49.500;7.764;2022-12-20T00:23:46;9.83;;;7.50;;
7432;SDS011;32233;49.500;7.764;2022-12-20T00:26:13;11.40;;;7.20;;
7432;SDS011;32233;49.500;7.764;2022-12-20T00:28:43;14.53;;;8.00;;
7432;SDS011;32233;49.500;7.764;2022-12-20T00:31:11;11.23;;;7.37;;
7432;SDS011;32233;49.500;7.764;2022-12-20T00:33:39;10.50;;;8.23;;
7432;SDS011;32233;49.500;7.764;2022-12-20T00:36:07;13.13;;;8.53;;
7432;SDS011;32233;49.500;7.764;2022-12-20T00:38:34;12.10;;;8.87;;
7432;SDS011;32233;49.500;7.764;2022-12-20T00:41:05;13.23;;;9.47;;
7432;SDS011;32233;49.500;7.764;2022-12-20T00:43:35;11.93;;;8.33;;
7432;SDS011;32233;49.500;7.764;2022-12-20T00:46:02;13.03;;;8.07;;
7432;SDS011;32233;49.500;7.764;2022-12-20T00:48:31;10.37;;;7.73;;
7432;SDS011;32233;49.500;7.764;2022-12-20T00:51:02;10.50;;;6.40;;
7432;SDS011;32233;49.500;7.764;2022-12-20T00:53:31;8.00;;;6.27;;
7432;SDS011;32233;49.500;7.764;2022-12-20T00:55:58;8.43;;;5.70;;
7432;SDS011;32233;49.500;7.764;2022-12-20T00:58:26;7.50;;;5.97;;
7432;SDS011;32233;49.500;7.764;2022-12-20T01:00:53;6.80;;;5.10;;
7432;SDS011;32233;49.500;7.764;2022-12-20T01:03:23;7.83;;;5.70;;
7432;SDS011;32233;49.500;7.764;2022-12-20T01:05:56;9.50;;;4.80;;
7432;SDS011;32233;49.500;7.764;2022-12-20T01:08:24;7.17;;;5.27;;
7432;SDS011;32233;49.500;7.764;2022-12-20T01:11:00;7.23;;;5.80;;
7432;SDS011;32233;49.500;7.764;2022-12-20T01:13:29;10.10;;;6.60;;
7432;SDS011;32233;49.500;7.764;2022-12-20T01:15:56;12.13;;;7.63;;
7432;SDS011;32233;49.500;7.764;2022-12-20T01:18:32;9.23;;;7.00;;
7432;SDS011;32233;49.500;7.764;2022-12-20T01:21:00;8.27;;;6.40;;
7432;SDS011;32233;49.500;7.764;2022-12-20T01:23:28;8.37;;;7.03;;
7432;SDS011;32233;49.500;7.764;2022-12-20T01:25:59;8.90;;;6.23;;
7432;SDS011;32233;49.500;7.764;2022-12-20T01:28:27;6.70;;;4.93;;
7432;SDS011;32233;49.500;7.764;2022-12-20T01:30:54;7.70;;;5.50;;
7432;SDS011;32233;49.500;7.764;2022-12-20T01:33:21;7.00;;;4.77;;
7432;SDS011;32233;49.500;7.764;2022-12-20T01:35:58;7.90;;;5.93;;
7432;SDS011;32233;49.500;7.764;2022-12-20T01:38:27;6.03;;;5.37;;
7432;SDS011;32233;49.500;7.764;2022-12-20T01:40:54;5.80;;;5.20;;
7432;SDS011;32233;49.500;7.764;2022-12-20T01:43:23;6.30;;;5.40;;
7432;SDS011;32233;49.500;7.764;2022-12-20T01:45:50;6.33;;;5.00;;
7432;SDS011;32233;49.500;7.764;2022-12-20T01:48:20;5.93;;;4.97;;
7432;SDS011;32233;49.500;7.764;2022-12-20T01:50:50;6.57;;;4.83;;
7432;SDS011;32233;49.500;7.764;2022-12-20T01:53:19;5.43;;;4.17;;
7432;SDS011;32233;49.500;7.764;2022-12-20T01:55:48;5.60;;;4.40;;
7432;SDS011;32233;49.500;7.764;2022-12-20T01:58:15;6.47;;;5.27;;
7432;SDS011;32233;49.500;7.764;2022-12-20T02:00:44;7.60;;;5.73;;
7432;SDS011;32233;49.500;7.764;2022-12-20T02:03:12;7.50;;;6.03;;
7432;SDS011;32233;49.500;7.764;2022-12-20T02:05:41;6.83;;;5.93;;
7432;SDS011;32233;49.500;7.764;2022-12-20T02:08:11;7.07;;;5.73;;
7432;SDS011;32233;49.500;7.764;2022-12-20T02:11:05;7.47;;;5.60;;
7432;SDS011;32233;49.500;7.764;2022-12-20T02:13:52;6.23;;;4.97;;
7432;SDS011;32233;49.500;7.764;2022-12-20T02:16:22;6.23;;;4.93;;
7432;SDS011;32233;49.500;7.764;2022-12-20T02:18:56;9.20;;;4.83;;
7432;SDS011;32233;49.500;7.764;2022-12-20T02:21:38;6.67;;;4.50;;
7432;SDS011;32233;49.500;7.764;2022-12-20T02:27:33;4.27;;;3.87;;
7432;SDS011;32233;49.500;7.764;2022-12-20T02:30:09;6.53;;;4.47;;
7432;SDS011;32233;49.500;7.764;2022-12-20T02:35:29;5.67;;;4.73;;
7432;SDS011;32233;49.500;7.764;2022-12-20T02:37:59;5.00;;;4.30;;
7432;SDS011;32233;49.500;7.764;2022-12-20T02:40:31;5.90;;;4.33;;
7432;SDS011;32233;49.500;7.764;2022-12-20T02:43:06;4.90;;;4.40;;
7432;SDS011;32233;49.500;7.764;2022-12-20T02:45:55;6.27;;;4.80;;
7432;SDS011;32233;49.500;7.764;2022-12-20T02:48:24;6.00;;;4.63;;
7432;SDS011;32233;49.500;7.764;2022-12-20T02:50:56;5.30;;;4.67;;
7432;SDS011;32233;49.500;7.764;2022-12-20T02:53:25;7.87;;;5.47;;
7432;SDS011;32233;49.500;7.764;2022-12-20T02:56:16;7.03;;;5.13;;
7432;SDS011;32233;49.500;7.764;2022-12-20T02:58:50;5.03;;;4.53;;
7432;SDS011;32233;49.500;7.764;2022-12-20T03:01:28;5.47;;;4.93;;
7432;SDS011;32233;49.500;7.764;2022-12-20T03:03:58;5.20;;;4.20;;
7432;SDS011;32233;49.500;7.764;2022-12-20T03:06:26;8.23;;;4.97;;
7432;SDS011;32233;49.500;7.764;2022-12-20T03:08:53;4.73;;;4.30;;
7432;SDS011;32233;49.500;7.764;2022-12-20T03:11:23;5.00;;;4.17;;
7432;SDS011;32233;49.500;7.764;2022-12-20T03:13:49;6.73;;;4.23;;
7432;SDS011;32233;49.500;7.764;2022-12-20T03:16:16;5.37;;;4.37;;
7432;SDS011;32233;49.500;7.764;2022-12-20T03:18:43;4.43;;;3.83;;
7432;SDS011;32233;49.500;7.764;2022-12-20T03:21:11;4.87;;;4.10;;
7432;SDS011;32233;49.500;7.764;2022-12-20T03:23:37;4.40;;;4.00;;
7432;SDS011;32233;49.500;7.764;2022-12-20T03:26:05;5.13;;;3.50;;
7432;SDS011;32233;49.500;7.764;2022-12-20T03:28:40;4.27;;;3.73;;
7432;SDS011;32233;49.500;7.764;2022-12-20T03:31:09;4.90;;;3.47;;
7432;SDS011;32233;49.500;7.764;2022-12-20T03:33:43;4.90;;;4.13;;
7432;SDS011;32233;49.500;7.764;2022-12-20T03:36:10;5.03;;;3.87;;
7432;SDS011;32233;49.500;7.764;2022-12-20T03:38:37;5.97;;;4.57;;
7432;SDS011;32233;49.500;7.764;2022-12-20T03:41:05;7.03;;;4.57;;
7432;SDS011;32233;49.500;7.764;2022-12-20T03:43:32;4.67;;;4.27;;
7432;SDS011;32233;49.500;7.764;2022-12-20T03:45:58;4.53;;;4.03;;
7432;SDS011;32233;49.500;7.764;2022-12-20T03:48:29;3.87;;;3.47;;
7432;SDS011;32233;49.500;7.764;2022-12-20T03:50:56;4.73;;;3.03;;
7432;SDS011;32233;49.500;7.764;2022-12-20T03:53:23;4.50;;;3.70;;
7432;SDS011;32233;49.500;7.764;2022-12-20T03:55:49;4.03;;;3.40;;
7432;SDS011;32233;49.500;7.764;2022-12-20T03:58:16;5.90;;;4.00;;
7432;SDS011;32233;49.500;7.764;2022-12-20T04:00:43;3.57;;;2.97;;
7432;SDS011;32233;49.500;7.764;2022-12-20T04:03:35;3.47;;;3.17;;
7432;SDS011;32233;49.500;7.764;2022-12-20T04:06:02;3.33;;;3.00;;
7432;SDS011;32233;49.500;7.764;2022-12-20T04:08:29;4.57;;;3.30;;
7432;SDS011;32233;49.500;7.764;2022-12-20T04:10:55;4.30;;;3.27;;
7432;SDS011;32233;49.500;7.764;2022-12-20T04:13:48;3.30;;;3.00;;
7432;SDS011;32233;49.500;7.764;2022-12-20T04:16:18;3.80;;;3.40;;
7432;SDS011;32233;49.500;7.764;2022-12-20T04:18:48;3.53;;;3.23;;
7432;SDS011;32233;49.500;7.764;2022-12-20T04:21:21;4.80;;;3.37;;
7432;SDS011;32233;49.500;7.764;2022-12-20T04:23:54;4.30;;;3.27;;
7432;SDS011;32233;49.500;7.764;2022-12-20T04:26:24;5.70;;;3.37;;
7432;SDS011;32233;49.500;7.764;2022-12-20T04:28:51;4.40;;;3.40;;
7432;SDS011;32233;49.500;7.764;2022-12-20T04:31:18;4.83;;;3.60;;
7432;SDS011;32233;49.500;7.764;2022-12-20T04:33:50;5.73;;;3.40;;
7432;SDS011;32233;49.500;7.764;2022-12-20T04:36:19;4.50;;;3.70;;
7432;SDS011;32233;49.500;7.764;2022-12-20T04:38:48;3.57;;;3.27;;
7432;SDS011;32233;49.500;7.764;2022-12-20T04:41:15;6.17;;;3.27;;
7432;SDS011;32233;49.500;7.764;2022-12-20T04:43:55;3.57;;;3.27;;
7432;SDS011;32233;49.500;7.764;2022-12-20T04:46:30;4.20;;;3.20;;
7432;SDS011;32233;49.500;7.764;2022-12-20T04:48:59;4.70;;;3.70;;
7432;SDS011;32233;49.500;7.764;2022-12-20T04:51:28;5.93;;;3.80;;
7432;SDS011;32233;49.500;7.764;2022-12-20T04:53:55;4.57;;;3.87;;
7432;SDS011;32233;49.500;7.764;2022-12-20T04:56:34;4.60;;;3.80;;
7432;SDS011;32233;49.500;7.764;2022-12-20T04:59:07;4.73;;;3.57;;
7432;SDS011;32233;49.500;7.764;2022-12-20T05:01:34;3.93;;;3.57;;
7432;SDS011;32233;49.500;7.764;2022-12-20T05:04:01;4.50;;;3.50;;
7432;SDS011;32233;49.500;7.764;2022-12-20T05:06:32;3.50;;;3.20;;
7432;SDS011;32233;49.500;7.764;2022-12-20T05:08:59;4.03;;;3.13;;
7432;SDS011;32233;49.500;7.764;2022-12-20T05:11:26;4.37;;;3.17;;
7432;SDS011;32233;49.500;7.764;2022-12-20T05:13:52;3.37;;;3.13;;
7432;SDS011;32233;49.500;7.764;2022-12-20T05:16:20;6.17;;;3.00;;
7432;SDS011;32233;49.500;7.764;2022-12-20T05:18:47;4.40;;;3.43;;
7432;SDS011;32233;49.500;7.764;2022-12-20T05:21:16;3.87;;;3.37;;
7432;SDS011;32233;49.500;7.764;2022-12-20T05:24:02;3.23;;;2.90;;
7432;SDS011;32233;49.500;7.764;2022-12-20T05:27:04;3.50;;;3.10;;
7432;SDS011;32233;49.500;7.764;2022-12-20T05:29:30;3.33;;;3.03;;
7432;SDS011;32233;49.500;7.764;2022-12-20T05:31:57;3.20;;;2.90;;
7432;SDS011;32233;49.500;7.764;2022-12-20T05:34:24;3.03;;;2.83;;
7432;SDS011;32233;49.500;7.764;2022-12-20T05:36:53;4.50;;;3.07;;
7432;SDS011;32233;49.500;7.764;2022-12-20T05:39:22;4.30;;;3.20;;
7432;SDS011;32233;49.500;7.764;2022-12-20T05:41:52;3.80;;;3.23;;
7432;SDS011;32233;49.500;7.764;2022-12-20T05:44:21;4.13;;;3.30;;
7432;SDS011;32233;49.500;7.764;2022-12-20T05:46:51;3.90;;;3.23;;
7432;SDS011;32233;49.500;7.764;2022-12-20T05:49:23;3.80;;;3.03;;
7432;SDS011;32233;49.500;7.764;2022-12-20T05:51:50;3.60;;;3.07;;
7432;SDS011;32233;49.500;7.764;2022-12-20T05:54:21;4.87;;;3.50;;
7432;SDS011;32233;49.500;7.764;2022-12-20T05:57:00;4.53;;;3.33;;
7432;SDS011;32233;49.500;7.764;2022-12-20T05:59:33;4.50;;;3.53;;
7432;SDS011;32233;49.500;7.764;2022-12-20T06:02:02;5.40;;;3.83;;
7432;SDS011;32233;49.500;7.764;2022-12-20T06:04:30;4.70;;;4.17;;
7432;SDS011;32233;49.500;7.764;2022-12-20T06:06:58;4.97;;;4.07;;
7432;SDS011;32233;49.500;7.764;2022-12-20T06:09:25;5.83;;;3.77;;
7432;SDS011;32233;49.500;7.764;2022-12-20T06:11:59;5.10;;;4.07;;
7432;SDS011;32233;49.500;7.764;2022-12-20T06:14:28;5.20;;;4.60;;
7432;SDS011;32233;49.500;7.764;2022-12-20T06:16:55;5.00;;;4.50;;
7432;SDS011;32233;49.500;7.764;2022-12-20T06:19:22;4.80;;;4.40;;
7432;SDS011;32233;49.500;7.764;2022-12-20T06:21:52;4.87;;;4.20;;
7432;SDS011;32233;49.500;7.764;2022-12-20T06:24:26;4.03;;;3.63;;
7432;SDS011;32233;49.500;7.764;2022-12-20T06:26:53;4.43;;;4.00;;
7432;SDS011;32233;49.500;7.764;2022-12-20T06:29:19;4.87;;;3.97;;
7432;SDS011;32233;49.500;7.764;2022-12-20T06:31:53;3.97;;;3.60;;
7432;SDS011;32233;49.500;7.764;2022-12-20T06:34:23;3.50;;;3.20;;
7432;SDS011;32233;49.500;7.764;2022-12-20T06:36:54;4.67;;;3.77;;
7432;SDS011;32233;49.500;7.764;2022-12-20T06:39:24;5.20;;;4.00;;
7432;SDS011;32233;49.500;7.764;2022-12-20T06:42:01;9.47;;;5.70;;
7432;SDS011;32233;49.500;7.764;2022-12-20T06:44:28;10.10;;;6.80;;
7432;SDS011;32233;49.500;7.764;2022-12-20T06:46:54;12.27;;;7.70;;
7432;SDS011;32233;49.500;7.764;2022-12-20T06:49:21;12.60;;;8.30;;
7432;SDS011;32233;49.500;7.764;2022-12-20T06:51:49;10.90;;;7.93;;
7432;SDS011;32233;49.500;7.764;2022-12-20T06:54:19;12.47;;;7.80;;
7432;SDS011;32233;49.500;7.764;2022-12-20T06:56:46;15.37;;;9.90;;
7432;SDS011;32233;49.500;7.764;2022-12-20T06:59:14;15.97;;;11.57;;
7432;SDS011;32233;49.500;7.764;2022-12-20T07:01:41;14.37;;;10.00;;
7432;SDS011;32233;49.500;7.764;2022-12-20T07:04:08;9.97;;;7.57;;
7432;SDS011;32233;49.500;7.764;2022-12-20T07:06:34;9.37;;;6.83;;
7432;SDS011;32233;49.500;7.764;2022-12-20T07:09:01;10.27;;;6.97;;
7432;SDS011;32233;49.500;7.764;2022-12-20T07:11:27;9.90;;;6.93;;
7432;SDS011;32233;49.500;7.764;2022-12-20T07:13:57;10.30;;;6.83;;
7432;SDS011;32233;49.500;7.764;2022-12-20T07:16:23;11.63;;;7.70;;
7432;SDS011;32233;49.500;7.764;2022-12-20T07:18:51;13.17;;;7.83;;
7432;SDS011;32233;49.500;7.764;2022-12-20T07:21:19;11.07;;;7.33;;
7432;SDS011;32233;49.500;7.764;2022-12-20T07:23:46;9.53;;;7.53;;
7432;SDS011;32233;49.500;7.764;2022-12-20T07:26:13;12.70;;;7.73;;
7432;SDS011;32233;49.500;7.764;2022-12-20T07:28:41;10.70;;;7.07;;
7432;SDS011;32233;49.500;7.764;2022-12-20T07:31:07;11.90;;;7.57;;
7432;SDS011;32233;49.500;7.764;2022-12-20T07:33:34;9.03;;;6.90;;
7432;SDS011;32233;49.500;7.764;2022-12-20T07:36:03;10.33;;;7.40;;
7432;SDS011;32233;49.500;7.764;2022-12-20T07:38:31;10.17;;;7.63;;
7432;SDS011;32233;49.500;7.764;2022-12-20T07:40:59;10.57;;;7.53;;
7432;SDS011;32233;49.500;7.764;2022-12-20T07:43:25;12.50;;;9.57;;
7432;SDS011;32233;49.500;7.764;2022-12-20T07:45:54;14.63;;;8.70;;
7432;SDS011;32233;49.500;7.764;2022-12-20T07:48:22;10.57;;;7.50;;
7432;SDS011;32233;49.500;7.764;2022-12-20T07:50:53;10.50;;;8.30;;
7432;SDS011;32233;49.500;7.764;2022-12-20T07:53:26;9.27;;;6.87;;
7432;SDS011;32233;49.500;7.764;2022-12-20T07:55:56;9.50;;;6.70;;
7432;SDS011;32233;49.500;7.764;2022-12-20T07:58:26;11.87;;;7.80;;
7432;SDS011;32233;49.500;7.764;2022-12-20T08:00:54;11.67;;;8.73;;
7432;SDS011;32233;49.500;7.764;2022-12-20T08:03:24;16.00;;;11.17;;
7432;SDS011;32233;49.500;7.764;2022-12-20T08:05:57;13.57;;;10.23;;
7432;SDS011;32233;49.500;7.764;2022-12-20T08:08:31;13.90;;;9.93;;
7432;SDS011;32233;49.500;7.764;2022-12-20T08:10:59;14.27;;;10.50;;
7432;SDS011;32233;49.500;7.764;2022-12-20T08:13:27;14.63;;;10.13;;
7432;SDS011;32233;49.500;7.764;2022-12-20T08:15:54;12.10;;;9.80;;
7432;SDS011;32233;49.500;7.764;2022-12-20T08:18:20;12.00;;;9.60;;
7432;SDS011;32233;49.500;7.764;2022-12-20T08:20:47;12.47;;;9.80;;
7432;SDS011;32233;49.500;7.764;2022-12-20T08:23:13;10.70;;;8.90;;
7432;SDS011;32233;49.500;7.764;2022-12-20T08:25:40;12.47;;;8.43;;
7432;SDS011;32233;49.500;7.764;2022-12-20T08:28:08;9.60;;;7.17;;
7432;SDS011;32233;49.500;7.764;2022-12-20T08:30:34;10.50;;;7.50;;
7432;SDS011;32233;49.500;7.764;2022-12-20T08:33:01;7.00;;;6.00;;
7432;SDS011;32233;49.500;7.764;2022-12-20T08:35:27;6.37;;;5.70;;
7432;SDS011;32233;49.500;7.764;2022-12-20T08:37:54;6.57;;;5.67;;
7432;SDS011;32233;49.500;7.764;2022-12-20T08:40:20;6.50;;;5.90;;
7432;SDS011;32233;49.500;7.764;2022-12-20T08:42:47;8.13;;;6.60;;
7432;SDS011;32233;49.500;7.764;2022-12-20T08:45:13;6.73;;;6.07;;
7432;SDS011;32233;49.500;7.764;2022-12-20T08:47:40;7.10;;;6.40;;
7432;SDS011;32233;49.500;7.764;2022-12-20T08:50:07;8.63;;;7.07;;
7432;SDS011;32233;49.500;7.764;2022-12-20T08:52:34;7.83;;;7.00;;
7432;SDS011;32233;49.500;7.764;2022-12-20T08:55:00;7.90;;;7.10;;
7432;SDS011;32233;49.500;7.764;2022-12-20T08:57:29;7.53;;;6.80;;
7432;SDS011;32233;49.500;7.764;2022-12-20T08:59:56;9.27;;;8.17;;
7432;SDS011;32233;49.500;7.764;2022-12-20T09:02:22;8.03;;;7.23;;
7432;SDS011;32233;49.500;7.764;2022-12-20T09:04:49;6.07;;;4.03;;
7432;SDS011;32233;49.500;7.764;2022-12-20T09:07:15;5.67;;;3.63;;
7432;SDS011;32233;49.500;7.764;2022-12-20T09:09:42;5.20;;;4.10;;
7432;SDS011;32233;49.500;7.764;2022-12-20T09:12:08;4.93;;;3.90;;
7432;SDS011;32233;49.500;7.764;2022-12-20T09:14:36;4.50;;;3.20;;
7432;SDS011;32233;49.500;7.764;2022-12-20T09:17:02;5.57;;;3.27;;
7432;SDS011;32233;49.500;7.764;2022-12-20T09:19:29;4.60;;;3.57;;
7432;SDS011;32233;49.500;7.764;2022-12-20T09:21:56;5.43;;;4.60;;
7432;SDS011;32233;49.500;7.764;2022-12-20T09:24:22;8.07;;;6.37;;
7432;SDS011;32233;49.500;7.764;2022-12-20T09:26:49;10.73;;;7.33;;
7432;SDS011;32233;49.500;7.764;2022-12-20T09:29:17;10.13;;;7.87;;
7432;SDS011;32233;49.500;7.764;2022-12-20T09:31:53;9.43;;;7.63;;
7432;SDS011;32233;49.500;7.764;2022-12-20T09:34:20;8.10;;;6.30;;
7432;SDS011;32233;49.500;7.764;2022-12-20T09:36:46;8.47;;;6.53;;
7432;SDS011;32233;49.500;7.764;2022-12-20T09:39:12;7.00;;;5.60;;
7432;SDS011;32233;49.500;7.764;2022-12-20T09:41:40;7.30;;;5.00;;
7432;SDS011;32233;49.500;7.764;2022-12-20T09:44:24;5.10;;;4.30;;
7432;SDS011;32233;49.500;7.764;2022-12-20T09:46:55;3.83;;;3.00;;
7432;SDS011;32233;49.500;7.764;2022-12-20T09:49:34;3.57;;;2.97;;
7432;SDS011;32233;49.500;7.764;2022-12-20T09:52:10;6.27;;;4.53;;
7432;SDS011;32233;49.500;7.764;2022-12-20T09:55:09;5.53;;;4.00;;
7432;SDS011;32233;49.500;7.764;2022-12-20T10:00:23;6.10;;;3.60;;
7432;SDS011;32233;49.500;7.764;2022-12-20T10:02:49;6.47;;;3.93;;
7432;SDS011;32233;49.500;7.764;2022-12-20T10:10:51;4.93;;;3.43;;
7432;SDS011;32233;49.500;7.764;2022-12-20T10:13:28;9.23;;;4.20;;
7432;SDS011;32233;49.500;7.764;2022-12-20T10:24:11;3.23;;;2.80;;
7432;SDS011;32233;49.500;7.764;2022-12-20T10:26:43;3.67;;;2.93;;
7432;SDS011;32233;49.500;7.764;2022-12-20T10:32:14;3.17;;;2.97;;
7432;SDS011;32233;49.500;7.764;2022-12-20T10:34:55;2.10;;;1.70;;
7432;SDS011;32233;49.500;7.764;2022-12-20T10:37:26;4.47;;;2.70;;
7432;SDS011;32233;49.500;7.764;2022-12-20T10:39:52;3.87;;;2.50;;
7432;SDS011;32233;49.500;7.764;2022-12-20T10:42:27;3.70;;;3.07;;
7432;SDS011;32233;49.500;7.764;2022-12-20T10:45:01;2.77;;;2.20;;
7432;SDS011;32233;49.500;7.764;2022-12-20T10:47:35;2.53;;;2.10;;
7432;SDS011;32233;49.500;7.764;2022-12-20T10:50:13;2.87;;;1.80;;
7432;SDS011;32233;49.500;7.764;2022-12-20T10:55:38;4.10;;;2.53;;
7432;SDS011;32233;49.500;7.764;2022-12-20T11:00:41;3.00;;;1.53;;
7432;SDS011;32233;49.500;7.764;2022-12-20T11:05:53;3.20;;;2.40;;
7432;SDS011;32233;49.500;7.764;2022-12-20T11:08:22;3.70;;;1.83;;
7432;SDS011;32233;49.500;7.764;2022-12-20T11:11:10;2.53;;;2.33;;
7432;SDS011;32233;49.500;7.764;2022-12-20T11:13:39;2.73;;;1.93;;
7432;SDS011;32233;49.500;7.764;2022-12-20T11:16:20;3.17;;;2.00;;
7432;SDS011;32233;49.500;7.764;2022-12-20T11:18:56;2.30;;;1.60;;
7432;SDS011;32233;49.500;7.764;2022-12-20T11:21:36;2.60;;;1.50;;
7432;SDS011;32233;49.500;7.764;2022-12-20T11:24:24;2.80;;;1.37;;
7432;SDS011;32233;49.500;7.764;2022-12-20T11:40:41;2.03;;;1.83;;
7432;SDS011;32233;49.500;7.764;2022-12-20T11:43:25;3.10;;;1.80;;
7432;SDS011;32233;49.500;7.764;2022-12-20T11:52:20;3.73;;;1.90;;
7432;SDS011;32233;49.500;7.764;2022-12-20T11:55:14;2.13;;;1.60;;
7432;SDS011;32233;49.500;7.764;2022-12-20T11:58:04;3.57;;;1.90;;
7432;SDS011;32233;49.500;7.764;2022-12-20T12:00:51;2.13;;;1.30;;
7432;SDS011;32233;49.500;7.764;2022-12-20T12:03:29;2.97;;;1.80;;
7432;SDS011;32233;49.500;7.764;2022-12-20T12:08:49;2.67;;;1.57;;
7432;SDS011;32233;49.500;7.764;2022-12-20T12:11:39;1.83;;;1.20;;
7432;SDS011;32233;49.500;7.764;2022-12-20T12:17:17;1.60;;;1.47;;
7432;SDS011;32233;49.500;7.764;2022-12-20T13:04:21;1.80;;;1.70;;
7432;SDS011;32233;49.500;7.764;2022-12-20T13:23:33;3.80;;;2.30;;
7432;SDS011;32233;49.500;7.764;2022-12-20T13:51:01;2.03;;;1.40;;
7432;SDS011;32233;49.500;7.764;2022-12-20T13:58:24;3.17;;;1.40;;
7432;SDS011;32233;49.500;7.764;2022-12-20T14:00:53;3.67;;;1.70;;
7432;SDS011;32233;49.500;7.764;2022-12-20T14:03:30;1.90;;;1.70;;
7432;SDS011;32233;49.500;7.764;2022-12-20T14:05:58;3.23;;;2.07;;
7432;SDS011;32233;49.500;7.764;2022-12-20T14:08:31;3.07;;;1.90;;
7432;SDS011;32233;49.500;7.764;2022-12-20T14:11:07;2.13;;;1.93;;
7432;SDS011;32233;49.500;7.764;2022-12-20T14:13:35;3.03;;;2.03;;
7432;SDS011;32233;49.500;7.764;2022-12-20T14:16:14;3.50;;;2.60;;
7432;SDS011;32233;49.500;7.764;2022-12-20T14:19:04;3.37;;;2.43;;
7432;SDS011;32233;49.500;7.764;2022-12-20T14:21:32;3.03;;;2.30;;
7432;SDS011;32233;49.500;7.764;2022-12-20T14:24:02;3.43;;;2.60;;
7432;SDS011;32233;49.500;7.764;2022-12-20T14:26:31;5.63;;;3.53;;
7432;SDS011;32233;49.500;7.764;2022-12-20T14:29:10;5.37;;;2.20;;
7432;SDS011;32233;49.500;7.764;2022-12-20T14:31:42;4.27;;;2.30;;
7432;SDS011;32233;49.500;7.764;2022-12-20T14:36:37;3.63;;;2.90;;
7432;SDS011;32233;49.500;7.764;2022-12-20T14:44:39;2.97;;;2.70;;
7432;SDS011;32233;49.500;7.764;2022-12-20T14:47:24;4.77;;;3.03;;
7432;SDS011;32233;49.500;7.764;2022-12-20T14:52:33;4.23;;;3.40;;
7432;SDS011;32233;49.500;7.764;2022-12-20T14:57:46;3.20;;;2.90;;
7432;SDS011;32233;49.500;7.764;2022-12-20T15:13:38;3.13;;;2.83;;
7432;SDS011;32233;49.500;7.764;2022-12-20T15:16:23;6.63;;;3.30;;
7432;SDS011;32233;49.500;7.764;2022-12-20T15:18:54;3.17;;;2.90;;
7432;SDS011;32233;49.500;7.764;2022-12-20T15:24:01;3.90;;;3.50;;
7432;SDS011;32233;49.500;7.764;2022-12-20T15:26:33;4.60;;;4.00;;
7432;SDS011;32233;49.500;7.764;2022-12-20T15:29:01;5.90;;;3.80;;
7432;SDS011;32233;49.500;7.764;2022-12-20T15:31:27;4.37;;;3.40;;
7432;SDS011;32233;49.500;7.764;2022-12-20T15:33:59;3.87;;;3.10;;
7432;SDS011;32233;49.500;7.764;2022-12-20T15:36:29;4.73;;;3.90;;
7432;SDS011;32233;49.500;7.764;2022-12-20T15:38:57;11.47;;;7.10;;
7432;SDS011;32233;49.500;7.764;2022-12-20T15:41:42;9.10;;;7.23;;
7432;SDS011;32233;49.500;7.764;2022-12-20T15:44:19;10.23;;;7.93;;
7432;SDS011;32233;49.500;7.764;2022-12-20T15:46:48;12.67;;;9.80;;
7432;SDS011;32233;49.500;7.764;2022-12-20T15:49:16;11.27;;;8.97;;
7432;SDS011;32233;49.500;7.764;2022-12-20T15:51:48;16.03;;;11.03;;
7432;SDS011;32233;49.500;7.764;2022-12-20T15:54:23;15.93;;;10.53;;
7432;SDS011;32233;49.500;7.764;2022-12-20T15:56:53;15.50;;;11.97;;
7432;SDS011;32233;49.500;7.764;2022-12-20T15:59:23;17.43;;;11.60;;
7432;SDS011;32233;49.500;7.764;2022-12-20T16:02:26;15.03;;;10.83;;
7432;SDS011;32233;49.500;7.764;2022-12-20T16:04:54;13.83;;;9.93;;
7432;SDS011;32233;49.500;7.764;2022-12-20T16:07:21;14.93;;;9.67;;
7432;SDS011;32233;49.500;7.764;2022-12-20T16:09:48;13.93;;;9.70;;
7432;SDS011;32233;49.500;7.764;2022-12-20T16:12:17;12.90;;;9.70;;
7432;SDS011;32233;49.500;7.764;2022-12-20T16:14:46;10.87;;;9.17;;
7432;SDS011;32233;49.500;7.764;2022-12-20T16:17:13;9.00;;;7.50;;
7432;SDS011;32233;49.500;7.764;2022-12-20T16:19:41;9.13;;;6.80;;
7432;SDS011;32233;49.500;7.764;2022-12-20T16:22:15;15.23;;;11.57;;
7432;SDS011;32233;49.500;7.764;2022-12-20T16:24:44;10.60;;;7.43;;
7432;SDS011;32233;49.500;7.764;2022-12-20T16:27:11;34.63;;;24.10;;
7432;SDS011;32233;49.500;7.764;2022-12-20T16:29:38;17.47;;;14.37;;
7432;SDS011;32233;49.500;7.764;2022-12-20T16:32:12;17.50;;;13.00;;
7432;SDS011;32233;49.500;7.764;2022-12-20T16:34:40;28.23;;;18.80;;
7432;SDS011;32233;49.500;7.764;2022-12-20T16:37:07;25.23;;;16.73;;
7432;SDS011;32233;49.500;7.764;2022-12-20T16:39:34;28.70;;;19.87;;
7432;SDS011;32233;49.500;7.764;2022-12-20T16:42:00;32.33;;;21.40;;
7432;SDS011;32233;49.500;7.764;2022-12-20T16:44:27;28.60;;;19.87;;
7432;SDS011;32233;49.500;7.764;2022-12-20T16:46:53;26.17;;;18.40;;
7432;SDS011;32233;49.500;7.764;2022-12-20T16:49:20;29.27;;;18.77;;
7432;SDS011;32233;49.500;7.764;2022-12-20T16:51:47;26.77;;;17.07;;
7432;SDS011;32233;49.500;7.764;2022-12-20T16:54:18;28.40;;;19.37;;
7432;SDS011;32233;49.500;7.764;2022-12-20T16:56:50;30.43;;;19.77;;
7432;SDS011;32233;49.500;7.764;2022-12-20T16:59:23;24.37;;;16.93;;
7432;SDS011;32233;49.500;7.764;2022-12-20T17:01:51;21.07;;;16.10;;
7432;SDS011;32233;49.500;7.764;2022-12-20T17:04:20;19.00;;;14.20;;
7432;SDS011;32233;49.500;7.764;2022-12-20T17:06:47;42.20;;;33.17;;
7432;SDS011;32233;49.500;7.764;2022-12-20T17:09:14;34.70;;;29.63;;
7432;SDS011;32233;49.500;7.764;2022-12-20T17:11:59;26.00;;;20.97;;
7432;SDS011;32233;49.500;7.764;2022-12-20T17:14:25;17.77;;;15.43;;
7432;SDS011;32233;49.500;7.764;2022-12-20T17:16:52;17.53;;;14.00;;
7432;SDS011;32233;49.500;7.764;2022-12-20T17:19:18;20.10;;;14.67;;
7432;SDS011;32233;49.500;7.764;2022-12-20T17:21:46;23.83;;;17.67;;
7432;SDS011;32233;49.500;7.764;2022-12-20T17:24:31;24.47;;;18.90;;
7432;SDS011;32233;49.500;7.764;2022-12-20T17:26:58;21.43;;;16.60;;
7432;SDS011;32233;49.500;7.764;2022-12-20T17:29:25;34.60;;;26.27;;
7432;SDS011;32233;49.500;7.764;2022-12-20T17:31:52;21.50;;;16.90;;
7432;SDS011;32233;49.500;7.764;2022-12-20T17:36:47;25.37;;;16.57;;
7432;SDS011;32233;49.500;7.764;2022-12-20T17:39:14;25.47;;;17.67;;
7432;SDS011;32233;49.500;7.764;2022-12-20T17:41:41;31.07;;;19.60;;
7432;SDS011;32233;49.500;7.764;2022-12-20T17:44:22;27.70;;;19.43;;
7432;SDS011;32233;49.500;7.764;2022-12-20T17:46:53;26.10;;;18.00;;
7432;SDS011;32233;49.500;7.764;2022-12-20T17:49:21;24.27;;;17.27;;
7432;SDS011;32233;49.500;7.764;2022-12-20T17:51:48;20.20;;;15.00;;
7432;SDS011;32233;49.500;7.764;2022-12-20T17:54:23;19.17;;;12.00;;
7432;SDS011;32233;49.500;7.764;2022-12-20T17:56:51;14.00;;;11.13;;
7432;SDS011;32233;49.500;7.764;2022-12-20T17:59:22;16.80;;;10.77;;
7432;SDS011;32233;49.500;7.764;2022-12-20T18:01:51;11.37;;;10.10;;
7432;SDS011;32233;49.500;7.764;2022-12-20T18:04:17;12.37;;;9.47;;
7432;SDS011;32233;49.500;7.764;2022-12-20T18:06:44;13.17;;;10.23;;
7432;SDS011;32233;49.500;7.764;2022-12-20T18:09:15;13.90;;;10.43;;
7432;SDS011;32233;49.500;7.764;2022-12-20T18:11:44;18.17;;;12.63;;
7432;SDS011;32233;49.500;7.764;2022-12-20T18:14:11;25.17;;;17.80;;
7432;SDS011;32233;49.500;7.764;2022-12-20T18:16:39;36.10;;;21.53;;
7432;SDS011;32233;49.500;7.764;2022-12-20T18:19:06;34.10;;;22.20;;